Time;durP1;ratioP1;P1;durP2;ratioP2;P2;SDS_P1;SDS_P2;PMS_P1;PMS_P2;Temp;Humidity;BMP_temperature;BMP_pressure;BME280_temperature;BME280_humidity;BME280_pressure;Samples;Min_cycle;Max_cycle;Signal;HPM_P1;HPM_P2
2023/09/29 14:56:19;;;;;;;0.73;0.73;;;;;;;;;;7391664;19;20316;-84
2023/09/29 14:58:46;;;;;;;0.53;0.53;;;;;;;;;;7387764;19;20344;-84
2023/09/29 15:01:12;;;;;;;0.50;0.50;;;;;;;;;;7386825;19;20424;-84
2023/09/29 15:03:45;;;;;;;0.50;0.50;;;;;;;;;;7389431;19;20407;-87
2023/09/29 15:06:15;;;;;;;0.88;0.88;;;;;;;;;;7383678;19;20440;-86
2023/09/29 15:08:41;;;;;;;0.73;0.73;;;;;;;;;;7387341;19;20374;-85
2023/09/29 15:11:10;;;;;;;1.10;1.00;;;;;;;;;;7390671;19;20355;-85
2023/09/29 15:13:39;;;;;;;0.77;0.77;;;;;;;;;;7388411;19;20357;-85
2023/09/29 15:16:11;;;;;;;0.65;0.65;;;;;;;;;;7395636;19;20902;-84
2023/09/29 15:18:38;;;;;;;1.67;0.93;;;;;;;;;;7391631;19;20424;-86
2023/09/29 15:21:05;;;;;;;0.82;0.65;;;;;;;;;;7396498;19;20381;-86
2023/09/29 15:23:34;;;;;;;1.00;1.00;;;;;;;;;;7400400;19;20154;-87
2023/09/29 15:26:01;;;;;;;0.40;0.40;;;;;;;;;;7396920;19;20491;-86
2023/09/29 15:28:28;;;;;;;0.50;0.50;;;;;;;;;;7395297;19;20345;-85
2023/09/29 15:30:59;;;;;;;0.70;0.70;;;;;;;;;;7398332;19;20347;-87
2023/09/29 15:33:27;;;;;;;0.75;0.75;;;;;;;;;;7397618;19;20352;-88
2023/09/29 15:35:56;;;;;;;0.73;0.73;;;;;;;;;;7396314;19;20360;-87
2023/09/29 15:38:25;;;;;;;0.77;0.77;;;;;;;;;;7393752;19;20415;-87
2023/09/29 15:40:52;;;;;;;0.77;0.77;;;;;;;;;;7406425;19;20360;-86
2023/09/29 15:43:22;;;;;;;0.47;0.47;;;;;;;;;;7402414;19;20357;-87
2023/09/29 15:45:49;;;;;;;0.60;0.60;;;;;;;;;;7397002;19;20651;-88
2023/09/29 15:48:17;;;;;;;0.50;0.50;;;;;;;;;;7395405;19;20369;-87
2023/09/29 15:50:45;;;;;;;1.00;1.00;;;;;;;;;;7395229;19;20369;-85
2023/09/29 15:53:14;;;;;;;0.60;0.60;;;;;;;;;;7396164;19;20365;-87
2023/09/29 15:55:42;;;;;;;0.43;0.43;;;;;;;;;;7397405;19;20357;-87
2023/09/29 15:58:10;;;;;;;0.60;0.50;;;;;;;;;;7391065;19;20367;-87
2023/09/29 16:00:37;;;;;;;1.10;0.70;;;;;;;;;;7394602;19;20364;-85
2023/09/29 16:03:05;;;;;;;0.40;0.40;;;;;;;;;;7397474;19;20732;-87
2023/09/29 16:05:57;;;;;;;0.60;0.60;;;;;;;;;;7420885;19;20371;-88
2023/09/29 16:08:23;;;;;;;0.73;0.73;;;;;;;;;;7420677;19;20369;-87
2023/09/29 16:10:53;;;;;;;0.63;0.63;;;;;;;;;;7413750;19;20361;-87
2023/09/29 16:13:28;;;;;;;0.50;0.50;;;;;;;;;;7389058;19;20695;-87
2023/09/29 16:16:03;;;;;;;0.47;0.47;;;;;;;;;;7389841;19;20352;-88
2023/09/29 16:18:35;;;;;;;0.50;0.50;;;;;;;;;;7393545;19;20897;-87
2023/09/29 16:21:15;;;;;;;1.00;1.00;;;;;;;;;;7397243;19;20357;-88
2023/09/29 16:23:49;;;;;;;0.57;0.55;;;;;;;;;;7393275;19;20385;-87
2023/09/29 16:26:17;;;;;;;0.90;0.90;;;;;;;;;;7394287;19;20706;-86
2023/09/29 16:28:45;;;;;;;0.80;0.80;;;;;;;;;;7395141;19;20356;-84
2023/09/29 16:31:15;;;;;;;1.25;1.15;;;;;;;;;;7393853;19;20378;-84
2023/09/29 16:33:42;;;;;;;0.87;0.87;;;;;;;;;;7394982;19;20356;-86
2023/09/29 16:36:19;;;;;;;0.60;0.60;;;;;;;;;;7391595;19;20928;-87
2023/09/29 16:39:06;;;;;;;0.97;0.97;;;;;;;;;;7392986;19;20719;-87
2023/09/29 16:41:34;;;;;;;2.70;1.30;;;;;;;;;;7392647;19;20344;-86
2023/09/29 16:44:00;;;;;;;1.02;1.02;;;;;;;;;;7396319;19;20739;-86
2023/09/29 16:46:27;;;;;;;2.70;1.20;;;;;;;;;;7393540;19;20364;-85
2023/09/29 16:48:54;;;;;;;1.00;1.00;;;;;;;;;;7392307;19;20439;-87
2023/09/29 16:51:24;;;;;;;1.40;1.30;;;;;;;;;;7393823;19;20340;-87
2023/09/29 16:53:50;;;;;;;0.80;0.80;;;;;;;;;;7394073;19;20347;-90
2023/09/29 16:56:19;;;;;;;2.50;0.80;;;;;;;;;;7391603;19;20373;-92
2023/09/29 16:58:45;;;;;;;0.80;0.80;;;;;;;;;;7391974;19;20436;-91
2023/09/29 17:01:12;;;;;;;0.77;0.77;;;;;;;;;;7398123;19;20400;-89
2023/09/29 17:03:39;;;;;;;1.45;1.35;;;;;;;;;;7397724;19;20849;-90
2023/09/29 17:06:06;;;;;;;1.23;1.17;;;;;;;;;;7394174;19;20360;-90
2023/09/29 17:08:34;;;;;;;0.90;0.90;;;;;;;;;;7392214;19;20373;-91
2023/09/29 17:11:09;;;;;;;;;;;;;;;;;;7396476;19;20022;-90
2023/09/29 17:13:37;;;;;;;;;;;;;;;;;;7394844;19;19925;-89
2023/09/29 17:16:03;;;;;;;;;;;;;;;;;;7394059;19;19929;-92
2023/09/29 17:18:34;;;;;;;;;;;;;;;;;;7395723;19;19987;-90
2023/09/29 17:21:13;;;;;;;;;;;;;;;;;;7397242;19;20002;-89
2023/09/29 17:23:43;;;;;;;;;;;;;;;;;;7396403;19;19918;-90
2023/09/29 17:26:14;;;;;;;;;;;;;;;;;;7393723;19;19914;-91
2023/09/29 17:28:40;;;;;;;;;;;;;;;;;;7395056;19;19991;-88
2023/09/29 17:31:16;;;;;;;;;;;;;;;;;;7393113;19;20676;-88
2023/09/29 17:33:43;;;;;;;;;;;;;;;;;;7388556;19;20381;-90
2023/09/29 17:36:10;;;;;;;;;;;;;;;;;;7390851;19;19931;-90
2023/09/29 17:38:38;;;;;;;;;;;;;;;;;;7392224;19;20004;-89
2023/09/29 17:41:05;;;;;;;;;;;;;;;;;;7393221;19;19954;-92
2023/09/29 17:43:35;;;;;;;;;;;;;;;;;;7388601;19;19931;-93
2023/09/29 17:46:07;;;;;;;;;;;;;;;;;;7392549;19;19925;-94
2023/09/29 17:48:37;;;;;;;;;;;;;;;;;;7394729;19;19923;-92
2023/09/29 17:51:12;;;;;;;;;;;;;;;;;;7400167;19;19923;-93
2023/09/29 17:53:39;;;;;;;;;;;;;;;;;;7418303;19;19930;-91
2023/09/29 17:56:11;;;;;;;;;;;;;;;;;;7406752;19;19926;-93
2023/09/29 17:58:40;;;;;;;;;;;;;;;;;;7407084;19;19922;-94
2023/09/29 18:01:09;;;;;;;;;;;;;;;;;;7407167;19;19922;-94
2023/09/29 18:03:36;;;;;;;;;;;;;;;;;;7410388;19;20177;-92
2023/09/29 18:06:03;;;;;;;;;;;;;;;;;;7415705;19;19953;-88
2023/09/29 18:08:32;;;;;;;;;;;;;;;;;;7395946;19;20379;-91
2023/09/29 18:10:58;;;;;;;;;;;;;;;;;;7382089;19;19942;-91
2023/09/29 18:13:25;;;;;;;;;;;;;;;;;;7382461;19;20269;-92
2023/09/29 18:15:52;;;;;;;;;;;;;;;;;;7387758;19;19921;-91
2023/09/29 18:18:19;;;;;;;;;;;;;;;;;;7386844;19;19955;-92
2023/09/29 18:20:45;;;;;;;;;;;;;;;;;;7387981;19;20236;-88
2023/09/29 18:23:13;;;;;;;;;;;;;;;;;;7386083;19;19931;-91
2023/09/29 18:25:39;;;;;;;;;;;;;;;;;;7387894;19;19929;-92
2023/09/29 18:28:06;;;;;;;;;;;;;;;;;;7383096;19;20351;-92
2023/09/29 18:30:33;;;;;;;;;;;;;;;;;;7388931;19;19931;-92
2023/09/29 18:32:59;;;;;;;;;;;;;;;;;;7385378;19;19990;-90
2023/09/29 18:35:26;;;;;;;;;;;;;;;;;;7386810;19;19935;-90
2023/09/29 18:37:53;;;;;;;;;;;;;;;;;;7384384;19;19931;-91
2023/09/29 18:40:19;;;;;;;;;;;;;;;;;;7384677;19;19947;-89
2023/09/29 18:42:46;;;;;;;;;;;;;;;;;;7383109;19;19919;-89
2023/09/29 18:45:13;;;;;;;;;;;;;;;;;;7384375;19;19985;-92
2023/09/29 18:47:40;;;;;;;;;;;;;;;;;;7381965;19;19930;-91
2023/09/29 18:50:09;;;;;;;;;;;;;;;;;;7389989;19;19927;-92
2023/09/29 18:52:36;;;;;;;;;;;;;;;;;;7391073;19;19922;-92
2023/09/29 18:55:04;;;;;;;;;;;;;;;;;;7391843;19;19982;-90
2023/09/29 18:57:31;;;;;;;;;;;;;;;;;;7391261;19;20000;-90
2023/09/29 19:00:00;;;;;;;;;;;;;;;;;;7392727;19;19985;-91
2023/09/29 19:02:27;;;;;;;;;;;;;;;;;;7396658;19;19944;-92
2023/09/29 19:04:54;;;;;;;;;;;;;;;;;;7394741;19;20002;-92
2023/09/29 19:07:20;;;;;;;;;;;;;;;;;;7391161;19;19918;-91
2023/09/29 19:09:48;;;;;;;;;;;;;;;;;;7393641;19;20371;-93
2023/09/29 19:12:15;;;;;;;;;;;;;;;;;;7391104;19;19926;-90
2023/09/29 19:14:42;;;;;;;;;;;;;;;;;;7390733;19;19951;-92
2023/09/29 19:17:09;;;;;;;;;;;;;;;;;;7389456;19;19929;-91
2023/09/29 19:19:35;;;;;;;;;;;;;;;;;;7390267;19;19939;-92
2023/09/29 19:22:02;;;;;;;;;;;;;;;;;;7392720;19;19957;-91
2023/09/29 19:24:29;;;;;;;;;;;;;;;;;;7392372;19;19994;-91
2023/09/29 19:26:55;;;;;;;;;;;;;;;;;;7390138;19;19919;-92
2023/09/29 19:29:23;;;;;;;;;;;;;;;;;;7394118;19;19918;-90
2023/09/29 19:31:51;;;;;;;;;;;;;;;;;;7396782;19;20269;-90
2023/09/29 19:34:18;;;;;;;;;;;;;;;;;;7403627;19;19922;-90
2023/09/29 19:36:49;;;;;;;;;;;;;;;;;;7403964;19;20380;-90
2023/09/29 19:39:18;;;;;;;;;;;;;;;;;;7397706;19;19986;-89
2023/09/29 19:41:44;;;;;;;;;;;;;;;;;;7402763;19;19927;-92
2023/09/29 19:44:11;;;;;;;;;;;;;;;;;;7399600;19;20010;-89
2023/09/29 19:46:38;;;;;;;;;;;;;;;;;;7398712;19;19935;-88
2023/09/29 19:49:05;;;;;;;;;;;;;;;;;;7398536;19;19919;-91
2023/09/29 19:51:31;;;;;;;;;;;;;;;;;;7399367;19;19928;-88
2023/09/29 19:53:59;;;;;;;;;;;;;;;;;;7400707;19;19918;-87
2023/09/29 19:56:32;;;;;;;;;;;;;;;;;;7400402;19;19922;-88
2023/09/29 19:59:00;;;;;;;;;;;;;;;;;;7402263;19;19919;-88
2023/09/29 20:01:27;;;;;;;;;;;;;;;;;;7398411;19;19932;-87
2023/09/29 20:03:55;;;;;;;;;;;;;;;;;;7398949;19;19962;-89
2023/09/29 20:07:09;;;;;;;;;;;;;;;;;;7402492;19;19918;-89
2023/09/29 20:09:58;;;;;;;;;;;;;;;;;;7412879;19;19964;-87
2023/09/29 20:12:25;;;;;;;;;;;;;;;;;;7389824;19;19918;-89
2023/09/29 20:14:51;;;;;;;;;;;;;;;;;;7399127;19;20382;-88
2023/09/29 20:17:19;;;;;;;;;;;;;;;;;;7414207;19;19915;-88
2023/09/29 20:19:46;;;;;;;;;;;;;;;;;;7425270;19;19918;-88
2023/09/29 20:22:13;;;;;;;;;;;;;;;;;;7424189;19;19922;-88
2023/09/29 20:24:40;;;;;;;;;;;;;;;;;;7424537;19;19922;-88
2023/09/29 20:27:06;;;;;;;;;;;;;;;;;;7422428;19;19915;-88
2023/09/29 20:29:34;;;;;;;;;;;;;;;;;;7423875;19;19922;-89
2023/09/29 20:32:02;;;;;;;;;;;;;;;;;;7424533;19;19915;-92
2023/09/29 20:34:28;;;;;;;;;;;;;;;;;;7425111;19;19926;-91
2023/09/29 20:36:55;;;;;;;;;;;;;;;;;;7424597;19;19923;-91
2023/09/29 20:39:22;;;;;;;;;;;;;;;;;;7424809;19;19911;-88
2023/09/29 20:41:50;;;;;;;;;;;;;;;;;;7425330;19;19942;-88
2023/09/29 20:44:17;;;;;;;;;;;;;;;;;;7424392;19;19957;-88
2023/09/29 20:46:44;;;;;;;;;;;;;;;;;;7422061;19;20259;-87
2023/09/29 20:49:11;;;;;;;;;;;;;;;;;;7420973;19;19936;-88
2023/09/29 20:51:38;;;;;;;;;;;;;;;;;;7397225;19;19914;-86
2023/09/29 20:54:06;;;;;;;;;;;;;;;;;;7395742;19;20312;-87
2023/09/29 20:56:35;;;;;;;;;;;;;;;;;;7394893;19;20321;-87
2023/09/29 20:59:03;;;;;;;;;;;;;;;;;;7395507;19;19922;-88
2023/09/29 21:01:30;;;;;;;;;;;;;;;;;;7390577;19;20278;-87
2023/09/29 21:03:57;;;;;;;;;;;;;;;;;;7391556;19;20273;-88
2023/09/29 21:06:24;;;;;;;;;;;;;;;;;;7396535;19;19923;-88
2023/09/29 21:08:50;;;;;;;;;;;;;;;;;;7396818;19;20259;-88
2023/09/29 21:11:17;;;;;;;;;;;;;;;;;;7393031;19;19926;-87
2023/09/29 21:13:43;;;;;;;;;;;;;;;;;;7395640;19;19918;-87
2023/09/29 21:16:11;;;;;;;;;;;;;;;;;;7391020;19;19940;-87
2023/09/29 21:18:37;;;;;;;;;;;;;;;;;;7387540;19;19927;-87
2023/09/29 21:21:04;;;;;;;;;;;;;;;;;;7391441;19;19926;-87
2023/09/29 21:23:31;;;;;;;;;;;;;;;;;;7395503;19;20031;-87
2023/09/29 21:25:57;;;;;;;;;;;;;;;;;;7391794;19;20252;-88
2023/09/29 21:28:24;;;;;;;;;;;;;;;;;;7392498;19;19934;-87
2023/09/29 21:30:52;;;;;;;;;;;;;;;;;;7392193;19;19923;-87
2023/09/29 21:33:18;;;;;;;;;;;;;;;;;;7387897;19;19923;-87
2023/09/29 21:35:45;;;;;;;;;;;;;;;;;;7386801;19;20249;-87
2023/09/29 21:38:12;;;;;;;;;;;;;;;;;;7391250;19;19929;-87
2023/09/29 21:40:38;;;;;;;;;;;;;;;;;;7393430;19;20382;-87
2023/09/29 21:43:06;;;;;;;;;;;;;;;;;;7392574;19;19934;-87
2023/09/29 21:45:33;;;;;;;;;;;;;;;;;;7392319;19;20359;-86
2023/09/29 21:48:00;;;;;;;;;;;;;;;;;;7391004;19;19943;-87
2023/09/29 21:50:27;;;;;;;;;;;;;;;;;;7392662;19;19932;-87
2023/09/29 21:52:54;;;;;;;;;;;;;;;;;;7390682;19;19926;-87
2023/09/29 21:55:20;;;;;;;;;;;;;;;;;;7393229;19;19933;-87
2023/09/29 21:57:47;;;;;;;;;;;;;;;;;;7391607;19;19937;-87
2023/09/29 22:00:17;;;;;;;;;;;;;;;;;;7390313;19;20438;-87
2023/09/29 22:02:44;;;;;;;;;;;;;;;;;;7389500;19;20003;-87
2023/09/29 22:05:14;;;;;;;;;;;;;;;;;;7389761;19;19926;-87
2023/09/29 22:07:42;;;;;;;;;;;;;;;;;;7388795;19;19932;-87
2023/09/29 22:10:12;;;;;;;;;;;;;;;;;;7389905;19;20327;-86
2023/09/29 22:12:39;;;;;;;;;;;;;;;;;;7394660;19;19987;-87
2023/09/29 22:15:11;;;;;;;;;;;;;;;;;;7411155;19;19918;-87
2023/09/29 22:17:37;;;;;;;;;;;;;;;;;;7400235;19;19946;-87
2023/09/29 22:20:05;;;;;;;;;;;;;;;;;;7391591;19;19926;-87
2023/09/29 22:22:31;;;;;;;;;;;;;;;;;;7392518;19;19978;-87
2023/09/29 22:24:58;;;;;;;;;;;;;;;;;;7398384;19;19919;-87
2023/09/29 22:27:25;;;;;;;;;;;;;;;;;;7397335;19;19927;-87
2023/09/29 22:29:53;;;;;;;;;;;;;;;;;;7398799;19;20283;-87
2023/09/29 22:32:20;;;;;;;;;;;;;;;;;;7399315;19;20279;-88
2023/09/29 22:34:46;;;;;;;;;;;;;;;;;;7398503;19;19923;-88
2023/09/29 22:37:13;;;;;;;;;;;;;;;;;;7397057;19;19922;-88
2023/09/29 22:39:40;;;;;;;;;;;;;;;;;;7401372;19;19926;-88
2023/09/29 22:42:12;;;;;;;;;;;;;;;;;;7398274;19;19919;-88
2023/09/29 22:44:39;;;;;;;;;;;;;;;;;;7397278;19;19918;-87
2023/09/29 22:47:07;;;;;;;;;;;;;;;;;;7396029;19;19931;-88
2023/09/29 22:49:34;;;;;;;;;;;;;;;;;;7402459;19;19933;-88
2023/09/29 22:52:00;;;;;;;;;;;;;;;;;;7402644;19;19935;-87
2023/09/29 22:54:28;;;;;;;;;;;;;;;;;;7400210;19;19937;-88
2023/09/29 22:56:55;;;;;;;;;;;;;;;;;;7396704;19;19938;-87
2023/09/29 22:59:22;;;;;;;;;;;;;;;;;;7396353;19;19918;-88
2023/09/29 23:01:52;;;;;;;;;;;;;;;;;;7396679;19;19930;-88
2023/09/29 23:04:19;;;;;;;;;;;;;;;;;;7401122;19;19925;-87
2023/09/29 23:06:46;;;;;;;;;;;;;;;;;;7398288;19;19919;-85
2023/09/29 23:09:14;;;;;;;;;;;;;;;;;;7390006;19;20260;-88
2023/09/29 23:11:44;;;;;;;;;;;;;;;;;;7392162;19;19919;-87
2023/09/29 23:14:11;;;;;;;;;;;;;;;;;;7390530;19;19923;-88
2023/09/29 23:16:41;;;;;;;;;;;;;;;;;;7390774;19;19914;-88
2023/09/29 23:19:08;;;;;;;;;;;;;;;;;;7385687;19;19923;-88
2023/09/29 23:21:34;;;;;;;;;;;;;;;;;;7398615;19;19922;-88
2023/09/29 23:24:01;;;;;;;;;;;;;;;;;;7399423;19;19918;-88
2023/09/29 23:26:28;;;;;;;;;;;;;;;;;;7394170;19;20269;-88
2023/09/29 23:28:55;;;;;;;;;;;;;;;;;;7395540;19;19931;-88
2023/09/29 23:31:22;;;;;;;;;;;;;;;;;;7392589;19;20407;-87
2023/09/29 23:33:49;;;;;;;;;;;;;;;;;;7389133;19;19923;-87
2023/09/29 23:36:19;;;;;;;;;;;;;;;;;;7391923;19;19915;-88
2023/09/29 23:38:46;;;;;;;;;;;;;;;;;;7390423;19;19927;-87
2023/09/29 23:41:14;;;;;;;;;;;;;;;;;;7392319;19;19930;-88
2023/09/29 23:43:40;;;;;;;;;;;;;;;;;;7390119;19;19923;-88
2023/09/29 23:46:07;;;;;;;;;;;;;;;;;;7390855;19;19943;-88
2023/09/29 23:48:34;;;;;;;;;;;;;;;;;;7391425;19;19933;-88
2023/09/29 23:51:04;;;;;;;;;;;;;;;;;;7395946;19;19922;-87
2023/09/29 23:53:31;;;;;;;;;;;;;;;;;;7396764;19;19955;-88
2023/09/29 23:56:02;;;;;;;;;;;;;;;;;;7396843;19;19990;-88
2023/09/29 23:58:28;;;;;;;;;;;;;;;;;;7393835;19;20399;-88
